Terri-ann — WBD3593 — position and weather

sailwx.info

Track history (hours):
 
Tides and Currents Weather Stations Pressure Air Temp Water Temp Dewpoint Dewpoint Depression Visibility Wind Speed Wind Dir Waves Ship Positions

Terri-ann

Owner: CALICO LOBSTER CO INC, SANDWICH, MA. More information available from US FCC via Universal Licensing System and Coast Guard Vessel Documentation Center.

Last reported at 2016-Aug-10 11:14 UTC. Time now 2016-Aug-25 23:44 UTC.
Position N 41°46' W 070°30'.
Warning: this ship's position is 15 days out of date.

Length 21 m.

Type: Fishing. MMSI: 367149920.

Date/timePositionNaut miles runAvg speedWind from/ knotsBaromVisibWave heightAir tempDewpointWater temp
2016-Aug-10 11:14N 41°46' W 070°30'0 0.1
2016-Aug-10 10:33N 41°46' W 070°30'0 0.0
2016-Aug-10 09:30N 41°46' W 070°30'1 1.0
2016-Aug-10 08:32N 41°47' W 070°29'9 9.0
2016-Aug-10 07:33N 41°55' W 070°23'16 8.2
2016-Aug-10 05:33N 42°06' W 070°08'9 8.7
2016-Aug-10 04:33N 42°02' W 069°58'12 8.7
2016-Aug-10 03:12N 41°54' W 069°46'5 7.8
2016-Aug-10 02:33N 41°51' W 069°40'8 7.9
2016-Aug-10 01:33N 41°46' W 069°32'  
2016-Aug-05 19:04N 41°42' W 070°40'  
Track history (hours):
 
Tides and Currents Weather Stations Pressure Air Temp Water Temp Dewpoint Dewpoint Depression Visibility Wind Speed Wind Dir Waves Ship Positions

Terri-ann

Owner: CALICO LOBSTER CO INC, SANDWICH, MA. More information available from US FCC via Universal Licensing System and Coast Guard Vessel Documentation Center.

Last reported at 2016-Aug-10 11:14 UTC. Time now 2016-Aug-25 23:44 UTC.
Position N 41°46' W 070°30'.
Warning: this ship's position is 15 days out of date.

Length 21 m.

Type: Fishing. MMSI: 367149920.

Date/timePositionNaut miles runAvg speedWind from/ knotsBaromVisibWave heightAir tempDewpointWater temp
2016-Aug-10 11:14N 41°46' W 070°30'0 0.1
2016-Aug-10 10:33N 41°46' W 070°30'0 0.0
2016-Aug-10 09:30N 41°46' W 070°30'1 1.0
2016-Aug-10 08:32N 41°47' W 070°29'9 9.0
2016-Aug-10 07:33N 41°55' W 070°23'16 8.2
2016-Aug-10 05:33N 42°06' W 070°08'9 8.7
2016-Aug-10 04:33N 42°02' W 069°58'12 8.7
2016-Aug-10 03:12N 41°54' W 069°46'5 7.8
2016-Aug-10 02:33N 41°51' W 069°40'8 7.9
2016-Aug-10 01:33N 41°46' W 069°32'  
2016-Aug-05 19:04N 41°42' W 070°40'  

Dump ship's entire track history